createdAt,value
2018-04-02T00:00:58.070Z,157.20
2018-04-02T00:01:58.105Z,160.20
2018-04-02T00:02:58.060Z,157.70
2018-04-02T00:03:58.064Z,163.00
2018-04-02T00:04:58.074Z,160.60
2018-04-02T00:05:58.066Z,159.30
2018-04-02T00:06:58.067Z,156.70
2018-04-02T00:07:58.060Z,160.20
2018-04-02T00:08:58.056Z,167.40
2018-04-02T00:09:58.060Z,170.10
2018-04-02T00:10:58.069Z,169.60
2018-04-02T00:11:58.070Z,171.30
2018-04-02T00:12:58.066Z,171.60
2018-04-02T00:13:58.068Z,170.50
2018-04-02T00:14:58.074Z,169.60
2018-04-02T00:15:58.062Z,171.10
2018-04-02T00:16:58.055Z,171.40
2018-04-02T00:17:58.166Z,169.20
2018-04-02T00:18:58.066Z,172.10
2018-04-02T00:19:58.064Z,170.30
2018-04-02T00:20:58.064Z,168.00
2018-04-02T00:21:58.051Z,171.20
2018-04-02T00:22:58.060Z,177.30
2018-04-02T00:23:58.111Z,174.50
2018-04-02T00:24:58.064Z,174.30
2018-04-02T00:25:58.069Z,171.80
2018-04-02T00:26:58.064Z,175.90
2018-04-02T00:27:58.062Z,172.50
2018-04-02T00:28:58.060Z,171.20
2018-04-02T00:29:58.065Z,172.80
2018-04-02T00:30:58.148Z,173.40
2018-04-02T00:31:58.055Z,175.10
2018-04-02T00:32:58.055Z,172.50
2018-04-02T00:33:58.063Z,170.80
2018-04-02T00:34:58.051Z,169.60
2018-04-02T00:35:58.060Z,176.60
2018-04-02T00:36:58.057Z,174.80
2018-04-02T00:37:58.066Z,174.60
2018-04-02T00:38:58.056Z,174.50
2018-04-02T00:39:58.060Z,177.20
2018-04-02T00:40:58.060Z,177.80
2018-04-02T00:41:58.051Z,173.80
2018-04-02T00:42:58.050Z,176.40
2018-04-02T00:43:58.058Z,171.30
2018-04-02T00:44:58.060Z,170.50
2018-04-02T00:45:58.046Z,169.60
2018-04-02T00:46:58.056Z,170.30
2018-04-02T00:47:58.057Z,176.80
2018-04-02T00:48:58.106Z,172.10
2018-04-02T00:49:58.050Z,175.90
2018-04-02T00:50:58.051Z,172.40
2018-04-02T00:51:58.053Z,175.70
2018-04-02T00:52:58.056Z,174.50
2018-04-02T00:53:58.056Z,174.50
2018-04-02T00:54:58.053Z,180.70
2018-04-02T00:55:58.056Z,178.10
2018-04-02T00:56:58.043Z,174.50
2018-04-02T00:57:58.047Z,184.80
2018-04-02T00:58:58.042Z,174.50
2018-04-02T00:59:58.051Z,170.60
2018-04-02T01:00:58.038Z,174.00
2018-04-02T01:01:58.159Z,172.70
2018-04-02T01:02:58.056Z,174.10
2018-04-02T01:03:58.052Z,179.20
2018-04-02T01:04:58.042Z,181.90
2018-04-02T01:05:58.045Z,179.30
2018-04-02T01:06:58.049Z,175.40
2018-04-02T01:07:58.051Z,180.40
2018-04-02T01:08:58.044Z,175.80
2018-04-02T01:09:58.034Z,178.80
2018-04-02T01:10:58.043Z,179.90
2018-04-02T01:11:58.054Z,178.50
2018-04-02T01:12:58.041Z,181.30
2018-04-02T01:13:58.042Z,177.70
2018-04-02T01:14:58.050Z,175.00
2018-04-02T01:15:58.044Z,182.30
2018-04-02T01:16:58.049Z,177.50
2018-04-02T01:17:58.043Z,179.00
2018-04-02T01:18:58.035Z,186.10
2018-04-02T01:19:58.050Z,185.20
2018-04-02T01:20:58.056Z,177.40
2018-04-02T01:21:58.046Z,174.00
2018-04-02T01:22:58.036Z,174.40
2018-04-02T01:23:58.051Z,172.80
2018-04-02T01:24:58.043Z,176.00
2018-04-02T01:25:58.047Z,171.10
2018-04-02T01:26:58.041Z,172.20
2018-04-02T01:27:58.099Z,176.10
2018-04-02T01:28:58.245Z,171.70
2018-04-02T01:29:58.035Z,172.10
2018-04-02T01:30:58.075Z,172.00
2018-04-02T01:31:58.038Z,174.30
2018-04-02T01:32:58.033Z,167.90
2018-04-02T01:33:58.036Z,177.00
2018-04-02T01:34:58.076Z,177.30
2018-04-02T01:35:58.032Z,180.90
2018-04-02T01:36:58.035Z,176.80
2018-04-02T01:37:58.035Z,181.40
2018-04-02T01:38:58.032Z,177.70
2018-04-02T01:39:58.034Z,176.70
2018-04-02T01:40:58.040Z,175.70
2018-04-02T01:41:58.031Z,179.00
2018-04-02T01:42:58.035Z,176.40
2018-04-02T01:43:58.034Z,174.20
2018-04-02T01:44:58.026Z,175.50
2018-04-02T01:45:58.086Z,172.80
2018-04-02T01:46:58.031Z,174.00
2018-04-02T01:47:58.029Z,172.40
2018-04-02T01:48:58.021Z,175.30
2018-04-02T01:49:58.025Z,173.80
2018-04-02T01:50:58.029Z,172.50
2018-04-02T01:51:58.029Z,174.80
2018-04-02T01:52:58.030Z,177.60
2018-04-02T01:53:58.029Z,176.00
2018-04-02T01:54:58.030Z,175.20
2018-04-02T01:55:58.026Z,183.80
2018-04-02T01:56:58.066Z,176.10
2018-04-02T01:57:58.022Z,180.60
2018-04-02T01:58:58.616Z,177.10
2018-04-02T01:59:58.010Z,172.70
2018-04-02T02:00:58.025Z,176.20
2018-04-02T02:01:58.029Z,168.30
2018-04-02T02:02:58.016Z,169.90
2018-04-02T02:03:58.011Z,172.50
2018-04-02T02:04:58.019Z,171.60
2018-04-02T02:05:58.026Z,171.90
2018-04-02T02:06:58.019Z,163.40
2018-04-02T02:07:58.032Z,168.60
2018-04-02T02:08:58.012Z,168.00
2018-04-02T02:09:58.025Z,170.50
2018-04-02T02:10:58.018Z,168.10
2018-04-02T02:11:58.039Z,169.40
2018-04-02T02:12:58.027Z,167.50
2018-04-02T02:13:58.025Z,166.20
2018-04-02T02:14:58.038Z,159.80
2018-04-02T02:15:58.014Z,158.30
2018-04-02T02:16:58.015Z,151.70
2018-04-02T02:17:58.013Z,155.90
2018-04-02T02:18:58.005Z,160.30
2018-04-02T02:19:58.010Z,158.10
2018-04-02T02:20:58.021Z,147.00
2018-04-02T02:21:58.007Z,147.80
2018-04-02T02:22:58.010Z,142.60
2018-04-02T02:23:58.003Z,137.50
2018-04-02T02:24:58.009Z,139.00
2018-04-02T02:25:58.009Z,134.70
2018-04-02T02:26:58.010Z,136.00
2018-04-02T02:27:58.022Z,136.70
2018-04-02T02:28:58.004Z,139.30
2018-04-02T02:29:58.135Z,136.20
2018-04-02T02:30:58.010Z,147.40
2018-04-02T02:31:58.005Z,147.00
2018-04-02T02:32:58.014Z,140.30
2018-04-02T02:33:58.006Z,139.70
2018-04-02T02:34:58.055Z,136.80
2018-04-02T02:35:58.002Z,138.40
2018-04-02T02:36:58.034Z,137.60
2018-04-02T02:37:58.009Z,137.00
2018-04-02T02:38:58.007Z,134.50
2018-04-02T02:39:58.008Z,133.30
2018-04-02T02:40:58.007Z,137.20
2018-04-02T02:41:58.009Z,134.80
2018-04-02T02:42:58.622Z,136.70
2018-04-02T02:43:58.007Z,143.80
2018-04-02T02:44:58.005Z,137.60
2018-04-02T02:45:58.003Z,129.60
2018-04-02T02:46:58.004Z,130.90
2018-04-02T02:47:58.002Z,126.70
2018-04-02T02:48:58.000Z,127.80
2018-04-02T02:49:58.005Z,134.50
2018-04-02T02:50:58.009Z,131.70
2018-04-02T02:51:58.005Z,129.60
2018-04-02T02:52:57.999Z,131.70
2018-04-02T02:53:57.997Z,135.40
2018-04-02T02:54:58.000Z,134.00
2018-04-02T02:55:58.045Z,137.30
2018-04-02T02:56:58.002Z,141.00
2018-04-02T02:57:57.988Z,141.30
2018-04-02T02:58:58.001Z,142.00
2018-04-02T02:59:58.003Z,140.00
2018-04-02T03:00:58.009Z,145.20
2018-04-02T03:01:58.002Z,144.60
2018-04-02T03:02:57.994Z,147.30
2018-04-02T03:03:58.028Z,143.80
2018-04-02T03:04:57.994Z,140.70
2018-04-02T03:05:58.001Z,137.60
2018-04-02T03:06:58.009Z,137.10
2018-04-02T03:07:57.997Z,137.50
2018-04-02T03:08:58.007Z,132.90
2018-04-02T03:09:57.989Z,128.90
2018-04-02T03:10:58.003Z,125.60
2018-04-02T03:11:57.999Z,127.20
2018-04-02T03:12:57.995Z,133.30
2018-04-02T03:13:57.982Z,135.60
2018-04-02T03:14:57.983Z,135.60
2018-04-02T03:15:57.992Z,135.10
2018-04-02T03:16:58.000Z,135.00
2018-04-02T03:17:57.986Z,138.50
2018-04-02T03:18:57.984Z,140.80
2018-04-02T03:19:57.991Z,137.00
2018-04-02T03:20:57.994Z,135.60
2018-04-02T03:21:58.018Z,134.80
2018-04-02T03:22:57.989Z,135.20
2018-04-02T03:23:57.988Z,136.80
2018-04-02T03:24:57.981Z,142.00
2018-04-02T03:25:57.983Z,142.90
2018-04-02T03:26:58.630Z,153.10
2018-04-02T03:27:57.988Z,154.30
2018-04-02T03:28:57.986Z,157.00
2018-04-02T03:29:57.988Z,156.20
2018-04-02T03:30:58.069Z,153.30
2018-04-02T03:31:57.983Z,154.10
2018-04-02T03:32:57.982Z,150.80
2018-04-02T03:33:57.980Z,153.60
2018-04-02T03:34:57.979Z,154.80
2018-04-02T03:35:57.995Z,151.50
2018-04-02T03:36:57.988Z,152.90
2018-04-02T03:37:57.996Z,154.20
2018-04-02T03:38:57.986Z,153.00
2018-04-02T03:39:58.050Z,147.80
2018-04-02T03:40:58.003Z,151.60
2018-04-02T03:41:57.987Z,141.50
2018-04-02T03:42:57.984Z,142.60
2018-04-02T03:43:57.983Z,145.00
2018-04-02T03:44:57.979Z,142.40
2018-04-02T03:45:57.980Z,141.30
2018-04-02T03:46:57.985Z,144.90
2018-04-02T03:47:57.979Z,140.10
2018-04-02T03:48:57.972Z,141.90
2018-04-02T03:49:57.978Z,144.60
2018-04-02T03:50:58.007Z,143.20
2018-04-02T03:51:57.983Z,145.10
2018-04-02T03:52:58.030Z,142.80
2018-04-02T03:53:57.972Z,140.10
2018-04-02T03:54:57.986Z,142.70
2018-04-02T03:55:57.978Z,140.00
2018-04-02T03:56:57.980Z,139.10
2018-04-02T03:57:57.975Z,139.00
2018-04-02T03:58:57.971Z,137.70
2018-04-02T03:59:57.973Z,139.30
2018-04-02T04:00:57.975Z,136.20
2018-04-02T04:01:57.980Z,139.50
2018-04-02T04:02:57.964Z,133.60
2018-04-02T04:03:58.638Z,138.60
2018-04-02T04:04:57.977Z,138.90
2018-04-02T04:05:57.966Z,142.90
2018-04-02T04:06:57.971Z,142.20
2018-04-02T04:07:57.981Z,142.10
2018-04-02T04:08:57.963Z,144.50
2018-04-02T04:09:57.976Z,142.00
2018-04-02T04:10:58.643Z,141.80
2018-04-02T04:11:57.965Z,132.80
2018-04-02T04:12:57.968Z,137.80
2018-04-02T04:13:57.963Z,137.70
2018-04-02T04:14:57.959Z,136.90
2018-04-02T04:15:57.961Z,138.10
2018-04-02T04:16:57.965Z,134.90
2018-04-02T04:17:57.985Z,136.20
2018-04-02T04:18:57.967Z,137.30
2018-04-02T04:19:57.974Z,132.70
2018-04-02T04:20:57.994Z,131.00
2018-04-02T04:21:58.640Z,121.30
2018-04-02T04:22:57.960Z,120.50
2018-04-02T04:23:57.959Z,117.80
2018-04-02T04:24:57.950Z,120.20
2018-04-02T04:25:57.948Z,119.70
2018-04-02T04:26:57.960Z,125.80
2018-04-02T04:27:57.949Z,128.60
2018-04-02T04:28:57.955Z,130.60
2018-04-02T04:29:57.952Z,128.90
2018-04-02T04:30:57.956Z,130.90
2018-04-02T04:31:57.950Z,134.60
2018-04-02T04:32:57.948Z,129.30
2018-04-02T04:33:57.956Z,123.90
2018-04-02T04:34:57.959Z,124.70
2018-04-02T04:35:57.950Z,112.30
2018-04-02T04:36:58.646Z,113.50
2018-04-02T04:37:57.960Z,111.70
2018-04-02T04:38:57.953Z,109.20
2018-04-02T04:39:57.972Z,112.00
2018-04-02T04:40:57.955Z,108.30
2018-04-02T04:41:57.957Z,107.90
2018-04-02T04:42:57.958Z,106.30
2018-04-02T04:43:57.949Z,109.10
2018-04-02T04:44:57.943Z,110.60
2018-04-02T04:45:57.938Z,109.70
2018-04-02T04:46:57.957Z,108.10
2018-04-02T04:47:57.944Z,107.70
2018-04-02T04:48:57.950Z,104.60
2018-04-02T04:49:57.961Z,106.70
2018-04-02T04:50:57.946Z,109.80
2018-04-02T04:51:57.954Z,110.80
2018-04-02T04:52:57.944Z,110.30
2018-04-02T04:53:57.940Z,113.20
2018-04-02T04:54:57.941Z,115.20
2018-04-02T04:55:57.942Z,115.90
2018-04-02T04:56:57.943Z,127.00
2018-04-02T04:57:57.936Z,127.70
2018-04-02T04:58:57.944Z,134.60
2018-04-02T04:59:57.938Z,133.80
2018-04-02T05:00:57.928Z,131.40
2018-04-02T05:01:57.936Z,135.90
2018-04-02T05:02:57.957Z,134.10
2018-04-02T05:03:57.943Z,132.50
2018-04-02T05:04:57.967Z,138.70
2018-04-02T05:05:57.979Z,138.40
2018-04-02T05:06:57.941Z,135.50
2018-04-02T05:07:57.993Z,140.30
2018-04-02T05:08:57.925Z,134.20
2018-04-02T05:09:57.942Z,136.60
2018-04-02T05:10:57.934Z,140.10
2018-04-02T05:11:57.931Z,139.80
2018-04-02T05:12:57.932Z,142.70
2018-04-02T05:13:57.931Z,141.40
2018-04-02T05:14:57.932Z,148.40
2018-04-02T05:15:57.924Z,143.00
2018-04-02T05:16:57.929Z,146.30
2018-04-02T05:17:57.932Z,151.70
2018-04-02T05:18:57.928Z,167.70
2018-04-02T05:19:57.931Z,167.40
2018-04-02T05:20:58.014Z,167.40
2018-04-02T05:21:57.927Z,166.40
2018-04-02T05:22:57.926Z,163.80
2018-04-02T05:23:57.930Z,169.40
2018-04-02T05:24:57.918Z,173.70
2018-04-02T05:25:57.936Z,175.60
2018-04-02T05:26:57.908Z,166.00
2018-04-02T05:27:57.926Z,174.40
2018-04-02T05:28:57.915Z,167.20
2018-04-02T05:29:57.924Z,172.30
2018-04-02T05:30:57.949Z,168.40
2018-04-02T05:31:57.922Z,170.40
2018-04-02T05:32:57.933Z,172.70
2018-04-02T05:33:57.920Z,177.20
2018-04-02T05:34:57.935Z,171.40
2018-04-02T05:35:57.916Z,178.70
2018-04-02T05:36:57.936Z,168.10
2018-04-02T05:37:57.915Z,172.70
2018-04-02T05:38:57.964Z,173.10
2018-04-02T05:39:57.919Z,174.40
2018-04-02T05:40:57.926Z,173.90
2018-04-02T05:41:57.909Z,174.10
2018-04-02T05:42:57.913Z,176.70
2018-04-02T05:43:57.908Z,172.00
2018-04-02T05:44:57.907Z,177.00
2018-04-02T05:45:57.904Z,168.70
2018-04-02T05:46:57.922Z,176.30
2018-04-02T05:47:57.900Z,180.30
2018-04-02T05:48:57.918Z,168.80
2018-04-02T05:49:57.909Z,172.00
2018-04-02T05:50:57.923Z,169.70
2018-04-02T05:51:57.903Z,170.20
2018-04-02T05:52:57.901Z,173.80
2018-04-02T05:53:57.908Z,167.00
2018-04-02T05:54:57.903Z,173.20
2018-04-02T05:55:57.908Z,166.40
2018-04-02T05:56:57.899Z,179.90
2018-04-02T05:57:57.902Z,181.40
2018-04-02T05:58:57.903Z,166.20
2018-04-02T05:59:57.964Z,178.70
2018-04-02T06:00:57.895Z,170.50
2018-04-02T06:01:57.924Z,168.40
2018-04-02T06:02:57.906Z,175.90
2018-04-02T06:03:57.902Z,179.70
2018-04-02T06:04:57.953Z,180.90
2018-04-02T06:05:57.900Z,179.60
2018-04-02T06:06:57.887Z,168.90
2018-04-02T06:07:57.893Z,172.90
2018-04-02T06:08:57.899Z,169.70
2018-04-02T06:09:57.888Z,162.20
2018-04-02T06:10:57.893Z,167.60
2018-04-02T06:11:57.895Z,163.40
2018-04-02T06:12:57.884Z,167.10
2018-04-02T06:13:57.891Z,167.20
2018-04-02T06:14:57.882Z,169.70
2018-04-02T06:15:57.898Z,163.40
2018-04-02T06:16:57.885Z,164.40
2018-04-02T06:17:58.013Z,166.80
2018-04-02T06:18:57.879Z,175.70
2018-04-02T06:19:57.884Z,174.10
2018-04-02T06:20:57.887Z,170.50
2018-04-02T06:21:57.892Z,173.10
2018-04-02T06:22:57.879Z,169.20
2018-04-02T06:23:57.885Z,166.10
2018-04-02T06:24:57.889Z,172.70
2018-04-02T06:25:57.884Z,168.00
2018-04-02T06:26:57.891Z,161.70
2018-04-02T06:27:57.876Z,162.40
2018-04-02T06:28:57.896Z,165.50
2018-04-02T06:29:57.892Z,165.10
2018-04-02T06:30:58.669Z,163.90
2018-04-02T06:31:57.884Z,166.90
2018-04-02T06:32:57.882Z,160.60
2018-04-02T06:33:57.884Z,166.90
2018-04-02T06:34:57.887Z,170.80
2018-04-02T06:35:57.888Z,169.50
2018-04-02T06:36:57.930Z,173.70
2018-04-02T06:37:57.875Z,173.60
2018-04-02T06:38:57.876Z,170.80
2018-04-02T06:39:57.882Z,165.30
2018-04-02T06:40:57.887Z,171.00
2018-04-02T06:41:57.880Z,170.70
2018-04-02T06:42:57.883Z,171.20
2018-04-02T06:43:57.886Z,166.50
2018-04-02T06:44:57.877Z,157.80
2018-04-02T06:45:57.885Z,162.10
2018-04-02T06:46:57.885Z,161.70
2018-04-02T06:47:57.884Z,157.20
2018-04-02T06:48:57.881Z,158.50
2018-04-02T06:49:57.900Z,157.90
2018-04-02T06:50:57.884Z,157.50
2018-04-02T06:51:57.888Z,158.70
2018-04-02T06:52:57.888Z,161.60
2018-04-02T06:53:57.890Z,157.60
2018-04-02T06:54:57.880Z,157.40
2018-04-02T06:55:57.871Z,151.40
2018-04-02T06:56:57.874Z,157.50
2018-04-02T06:57:57.888Z,153.00
2018-04-02T06:58:57.880Z,156.60
2018-04-02T06:59:57.884Z,150.50
2018-04-02T07:00:57.880Z,151.70
2018-04-02T07:01:57.888Z,149.30
2018-04-02T07:02:57.874Z,151.40
2018-04-02T07:03:57.880Z,147.90
2018-04-02T07:04:57.881Z,150.20
2018-04-02T07:05:57.884Z,150.90
2018-04-02T07:06:57.875Z,144.10
2018-04-02T07:07:57.882Z,145.70
2018-04-02T07:08:57.882Z,146.50
2018-04-02T07:09:57.883Z,148.10
2018-04-02T07:10:57.898Z,145.80
2018-04-02T07:11:57.877Z,147.50
2018-04-02T07:12:57.871Z,148.60
2018-04-02T07:13:57.876Z,144.80
2018-04-02T07:14:57.877Z,142.00
2018-04-02T07:15:57.884Z,142.00
2018-04-02T07:16:57.887Z,142.40
2018-04-02T07:17:57.877Z,141.70
2018-04-02T07:18:57.880Z,142.00
2018-04-02T07:19:57.885Z,133.60
2018-04-02T07:20:57.880Z,137.00
2018-04-02T07:21:57.885Z,138.90
2018-04-02T07:22:57.936Z,137.80
2018-04-02T07:23:57.878Z,137.80
2018-04-02T07:24:57.879Z,137.70
2018-04-02T07:25:57.882Z,136.00
2018-04-02T07:26:57.875Z,138.80
2018-04-02T07:27:57.891Z,141.40
2018-04-02T07:28:57.871Z,138.10
2018-04-02T07:29:57.874Z,141.10
2018-04-02T07:30:57.884Z,134.30
2018-04-02T07:31:57.889Z,133.20
2018-04-02T07:32:57.894Z,137.60
2018-04-02T07:33:57.874Z,139.80
2018-04-02T07:34:57.884Z,140.60
2018-04-02T07:35:57.888Z,140.20
2018-04-02T07:36:57.888Z,142.10
2018-04-02T07:37:57.886Z,137.90
2018-04-02T07:38:57.887Z,142.40
2018-04-02T07:39:57.892Z,143.80
2018-04-02T07:40:57.887Z,139.10
2018-04-02T07:41:57.892Z,134.70
2018-04-02T07:42:57.889Z,136.30
2018-04-02T07:43:57.900Z,133.10
2018-04-02T07:44:57.896Z,131.80
2018-04-02T07:45:57.897Z,134.90
2018-04-02T07:46:57.895Z,132.00
2018-04-02T07:47:57.896Z,122.50
2018-04-02T07:48:57.892Z,129.70
2018-04-02T07:49:57.893Z,121.40
2018-04-02T07:50:57.910Z,122.10
2018-04-02T07:51:57.906Z,117.70
2018-04-02T07:52:57.899Z,121.50
2018-04-02T07:53:57.904Z,115.50
2018-04-02T07:54:57.903Z,118.00
2018-04-02T07:55:58.692Z,111.40
2018-04-02T07:56:57.912Z,117.10
2018-04-02T07:57:57.917Z,119.30
2018-04-02T07:58:57.920Z,111.90
2018-04-02T07:59:57.934Z,113.10
2018-04-02T08:00:57.919Z,107.50
2018-04-02T08:01:57.925Z,111.30
2018-04-02T08:02:57.976Z,105.00
2018-04-02T08:03:57.921Z,104.40
2018-04-02T08:04:57.943Z,101.30
2018-04-02T08:05:57.944Z,97.50
2018-04-02T08:06:57.933Z,96.80
2018-04-02T08:07:57.935Z,96.10
2018-04-02T08:08:58.058Z,98.90
2018-04-02T08:09:57.951Z,102.30
2018-04-02T08:10:57.944Z,106.10
2018-04-02T08:11:57.939Z,94.90
2018-04-02T08:12:57.956Z,95.20
2018-04-02T08:13:57.959Z,93.00
2018-04-02T08:14:57.964Z,92.50
2018-04-02T08:15:57.962Z,94.70
2018-04-02T08:16:57.956Z,96.50
2018-04-02T08:17:57.970Z,93.60
2018-04-02T08:18:57.964Z,89.90
2018-04-02T08:19:57.974Z,92.40
2018-04-02T08:20:57.994Z,89.60
2018-04-02T08:21:58.695Z,86.20
2018-04-02T08:22:57.983Z,87.20
2018-04-02T08:23:57.984Z,84.30
2018-04-02T08:24:58.001Z,86.30
2018-04-02T08:25:57.981Z,85.60
2018-04-02T08:26:58.005Z,83.80
2018-04-02T08:27:57.989Z,80.20
2018-04-02T08:28:57.997Z,85.00
2018-04-02T08:29:58.005Z,88.60
2018-04-02T08:30:58.007Z,91.10
2018-04-02T08:31:58.004Z,89.50
2018-04-02T08:32:58.005Z,94.80
2018-04-02T08:33:58.023Z,93.90
2018-04-02T08:34:58.013Z,85.40
2018-04-02T08:35:58.012Z,88.90
2018-04-02T08:36:58.022Z,83.00
2018-04-02T08:37:58.028Z,87.70
2018-04-02T08:38:58.037Z,88.20
2018-04-02T08:39:58.031Z,86.10
2018-04-02T08:40:58.036Z,82.10
2018-04-02T08:41:58.036Z,84.00
2018-04-02T08:42:58.045Z,83.70
2018-04-02T08:43:58.040Z,81.10
2018-04-02T08:44:58.053Z,81.10
2018-04-02T08:45:58.059Z,76.10
2018-04-02T08:46:58.059Z,74.90
2018-04-02T08:47:58.073Z,73.50
2018-04-02T08:48:58.072Z,74.00
2018-04-02T08:49:58.075Z,73.20
2018-04-02T08:50:58.077Z,73.70
2018-04-02T08:51:58.073Z,77.00
2018-04-02T08:52:58.135Z,80.40
2018-04-02T08:53:58.096Z,81.80
2018-04-02T08:54:58.115Z,82.60
2018-04-02T08:55:58.100Z,78.80
2018-04-02T08:56:58.098Z,77.70
2018-04-02T08:57:58.102Z,72.50
2018-04-02T08:58:58.110Z,70.80
2018-04-02T08:59:58.099Z,67.30
2018-04-02T09:00:58.133Z,67.60
2018-04-02T09:01:58.117Z,71.20
2018-04-02T09:02:58.117Z,72.90
2018-04-02T09:03:58.124Z,71.60
2018-04-02T09:04:58.132Z,73.10
2018-04-02T09:05:58.138Z,73.60
2018-04-02T09:06:58.145Z,68.50
2018-04-02T09:07:58.139Z,73.80
2018-04-02T09:08:58.141Z,72.90
2018-04-02T09:09:58.142Z,75.70
2018-04-02T09:10:58.156Z,68.60
2018-04-02T09:11:58.148Z,63.60
2018-04-02T09:12:58.149Z,62.20
2018-04-02T09:13:58.161Z,64.50
2018-04-02T09:14:58.153Z,61.30
2018-04-02T09:15:58.157Z,59.10
2018-04-02T09:16:58.168Z,56.90
2018-04-02T09:17:58.171Z,61.00
2018-04-02T09:18:58.174Z,56.00
2018-04-02T09:19:58.187Z,58.60
2018-04-02T09:20:58.177Z,53.70
2018-04-02T09:21:58.184Z,64.40
2018-04-02T09:22:58.196Z,60.90
2018-04-02T09:23:58.177Z,55.20
2018-04-02T09:24:58.192Z,58.00
2018-04-02T09:25:58.185Z,60.40
2018-04-02T09:26:58.210Z,65.90
2018-04-02T09:27:58.190Z,56.70
2018-04-02T09:28:58.202Z,63.00
2018-04-02T09:29:58.202Z,60.40
2018-04-02T09:30:58.255Z,60.80
2018-04-02T09:31:58.220Z,60.70
2018-04-02T09:32:58.216Z,58.60
2018-04-02T09:33:58.217Z,54.30
2018-04-02T09:34:58.218Z,55.10
2018-04-02T09:35:58.236Z,56.00
2018-04-02T09:36:58.245Z,51.60
2018-04-02T09:37:58.231Z,53.80
2018-04-02T09:38:58.237Z,53.00
2018-04-02T09:39:58.249Z,52.90
2018-04-02T09:40:58.265Z,52.20
2018-04-02T09:41:58.250Z,50.00
2018-04-02T09:42:58.246Z,51.00
2018-04-02T09:43:58.255Z,52.90
2018-04-02T09:44:58.271Z,53.30
2018-04-02T09:45:58.256Z,48.90
2018-04-02T09:46:58.264Z,50.90
2018-04-02T09:47:58.271Z,49.50
2018-04-02T09:48:58.278Z,50.80
2018-04-02T09:49:58.275Z,48.20
2018-04-02T09:50:58.281Z,47.70
2018-04-02T09:51:58.281Z,43.70
2018-04-02T09:52:58.282Z,46.20
2018-04-02T09:53:58.339Z,45.10
2018-04-02T09:54:58.313Z,47.20
2018-04-02T09:55:58.299Z,48.30
2018-04-02T09:56:58.309Z,47.90
2018-04-02T09:57:58.306Z,46.90
2018-04-02T09:58:58.309Z,47.40
2018-04-02T09:59:58.307Z,48.80
2018-04-02T10:00:58.324Z,46.40
2018-04-02T10:01:58.339Z,47.80
2018-04-02T10:02:58.321Z,44.30
2018-04-02T10:03:58.327Z,40.00
2018-04-02T10:04:58.373Z,41.30
2018-04-02T10:05:58.336Z,42.00
2018-04-02T10:06:58.336Z,39.60
2018-04-02T10:07:58.332Z,41.60
2018-04-02T10:08:58.331Z,42.70
2018-04-02T10:09:58.350Z,43.30
2018-04-02T10:10:58.345Z,43.20
2018-04-02T10:11:58.370Z,45.30
2018-04-02T10:12:58.352Z,42.90
2018-04-02T10:13:58.348Z,42.70
2018-04-02T10:14:58.360Z,42.20
2018-04-02T10:15:58.370Z,43.40
2018-04-02T10:16:58.362Z,41.50
2018-04-02T10:17:58.364Z,40.60
2018-04-02T10:18:58.373Z,41.80
2018-04-02T10:19:58.405Z,41.40
2018-04-02T10:20:58.370Z,41.40
2018-04-02T10:21:58.380Z,42.90
2018-04-02T10:22:58.380Z,41.30
2018-04-02T10:23:58.458Z,41.80
2018-04-02T10:24:58.383Z,42.40
2018-04-02T10:25:58.401Z,43.00
2018-04-02T10:26:58.401Z,41.80
2018-04-02T10:27:58.393Z,44.10
2018-04-02T10:28:58.418Z,43.80
2018-04-02T10:29:58.449Z,43.40
2018-04-02T10:30:58.407Z,41.10
2018-04-02T10:31:58.411Z,40.60
2018-04-02T10:32:58.425Z,40.50
2018-04-02T10:33:58.417Z,39.30
2018-04-02T10:34:58.490Z,40.70
2018-04-02T10:35:58.431Z,42.00
2018-04-02T10:36:58.425Z,41.30
2018-04-02T10:37:58.438Z,39.40
2018-04-02T10:38:58.431Z,42.90
2018-04-02T10:39:58.445Z,41.10
2018-04-02T10:40:58.449Z,41.00
2018-04-02T10:41:58.487Z,39.70
2018-04-02T10:42:58.445Z,39.90
2018-04-02T10:43:58.466Z,40.00
2018-04-02T10:44:58.538Z,36.40
2018-04-02T10:45:58.461Z,38.00
2018-04-02T10:46:58.476Z,36.90
2018-04-02T10:47:58.470Z,38.70
2018-04-02T10:48:58.477Z,39.40
2018-04-02T10:49:58.487Z,39.90
2018-04-02T10:50:58.489Z,37.50
2018-04-02T10:51:58.490Z,39.20
2018-04-02T10:52:58.490Z,39.00
2018-04-02T10:53:58.496Z,39.90
2018-04-02T10:54:58.515Z,40.90
2018-04-02T10:55:58.537Z,37.90
2018-04-02T10:56:58.526Z,36.90
2018-04-02T10:57:59.268Z,37.90
2018-04-02T10:58:58.531Z,36.50
2018-04-02T10:59:58.547Z,36.00
2018-04-02T11:00:58.553Z,36.20
2018-04-02T11:01:58.548Z,36.90
2018-04-02T11:02:58.560Z,35.30
2018-04-02T11:03:58.560Z,34.40
2018-04-02T11:04:58.577Z,33.00
2018-04-02T11:05:58.577Z,32.90
2018-04-02T11:06:58.582Z,33.40
2018-04-02T11:07:58.590Z,31.90
2018-04-02T11:08:58.592Z,31.30
2018-04-02T11:09:58.605Z,32.80
2018-04-02T11:10:58.611Z,33.20
2018-04-02T11:11:58.617Z,32.40
2018-04-02T11:12:58.646Z,33.90
2018-04-02T11:13:58.636Z,32.60
2018-04-02T11:14:58.642Z,32.80
2018-04-02T11:15:58.644Z,33.10
2018-04-02T11:16:58.649Z,32.70
2018-04-02T11:17:58.678Z,31.90
2018-04-02T11:18:58.668Z,32.90
2018-04-02T11:19:58.671Z,32.60
2018-04-02T11:20:58.673Z,33.30
2018-04-02T11:21:58.700Z,30.90
2018-04-02T11:22:58.679Z,29.90
2018-04-02T11:23:58.711Z,29.40
2018-04-02T11:24:58.707Z,30.30
2018-04-02T11:25:58.723Z,29.80
2018-04-02T11:26:58.716Z,31.00
2018-04-02T11:27:58.721Z,30.80
2018-04-02T11:28:58.734Z,29.40
2018-04-02T11:29:58.729Z,30.20
2018-04-02T11:30:58.728Z,28.90
2018-04-02T11:31:58.736Z,30.80
2018-04-02T11:32:58.755Z,30.60
2018-04-02T11:33:58.761Z,30.30
2018-04-02T11:34:58.763Z,30.90
2018-04-02T11:35:58.769Z,31.30
2018-04-02T11:36:58.766Z,31.10
2018-04-02T11:37:58.766Z,32.70
2018-04-02T11:38:58.776Z,32.70
2018-04-02T11:39:58.788Z,31.80
2018-04-02T11:40:58.787Z,32.40
2018-04-02T11:41:58.796Z,31.80
2018-04-02T11:42:58.815Z,31.40
2018-04-02T11:43:58.801Z,32.10
2018-04-02T11:44:58.802Z,31.70
2018-04-02T11:45:58.813Z,31.10
2018-04-02T11:46:58.813Z,33.60
2018-04-02T11:47:58.800Z,31.30
2018-04-02T11:48:58.916Z,31.00
2018-04-02T11:49:58.811Z,32.20
2018-04-02T11:50:58.819Z,32.00
2018-04-02T11:51:58.826Z,32.00
2018-04-02T11:52:58.827Z,30.60
2018-04-02T11:53:58.859Z,29.80
2018-04-02T11:54:58.849Z,30.70
2018-04-02T11:55:58.842Z,29.00
2018-04-02T11:56:58.842Z,26.70
2018-04-02T11:57:58.835Z,24.40
2018-04-02T11:58:58.847Z,19.80
2018-04-02T11:59:58.840Z,19.50
2018-04-02T12:00:58.856Z,21.10
2018-04-02T12:01:58.864Z,21.30
2018-04-02T12:02:58.866Z,22.60
2018-04-02T12:03:58.881Z,24.00
2018-04-02T12:04:58.874Z,24.00
2018-04-02T12:05:58.870Z,22.80
2018-04-02T12:06:58.946Z,20.60
2018-04-02T12:07:58.868Z,19.40
2018-04-02T12:08:58.880Z,17.00
2018-04-02T12:09:58.889Z,18.90
2018-04-02T12:10:58.882Z,18.80
2018-04-02T12:11:58.917Z,17.90
2018-04-02T12:12:58.893Z,17.80
2018-04-02T12:13:58.934Z,17.40
2018-04-02T12:14:58.895Z,17.90
2018-04-02T12:15:58.900Z,16.10
2018-04-02T12:16:58.920Z,15.30
2018-04-02T12:17:58.902Z,12.80
2018-04-02T12:18:58.904Z,11.30
2018-04-02T12:19:58.917Z,10.80
2018-04-02T12:20:58.926Z,10.10
2018-04-02T12:21:58.908Z,9.10
2018-04-02T12:22:58.932Z,8.60
2018-04-02T12:23:58.925Z,9.70
2018-04-02T12:24:58.937Z,8.90
2018-04-02T12:25:58.933Z,10.10
2018-04-02T12:26:58.932Z,8.40
2018-04-02T12:27:58.933Z,10.10
2018-04-02T12:28:58.938Z,10.50
2018-04-02T12:29:58.946Z,8.80
2018-04-02T12:30:58.959Z,10.20
2018-04-02T12:31:58.951Z,7.30
2018-04-02T12:32:58.965Z,8.10
2018-04-02T12:33:58.955Z,8.10
2018-04-02T12:34:58.962Z,8.40
2018-04-02T12:35:58.951Z,9.60
2018-04-02T12:36:58.969Z,9.40
2018-04-02T12:37:58.968Z,9.00